Time;durP1;ratioP1;P1;durP2;ratioP2;P2;SDS_P1;SDS_P2;PMS_P1;PMS_P2;Temp;Humidity;BMP_temperature;BMP_pressure;BME280_temperature;BME280_humidity;BME280_pressure;Samples;Min_cycle;Max_cycle;Signal;HPM_P1;HPM_P2
2023/09/30 00:00:56;;;;;;;4.50;2.95;;;14.20;99.90;;;;;;5031552;28;20375;-80
2023/09/30 00:03:22;;;;;;;4.18;2.22;;;14.20;99.90;;;;;;5038631;28;20044;-80
2023/09/30 00:05:48;;;;;;;5.20;2.42;;;14.20;99.90;;;;;;5037290;28;20030;-80
2023/09/30 00:08:14;;;;;;;4.82;2.65;;;14.10;99.90;;;;;;5026078;28;20063;-79
2023/09/30 00:10:40;;;;;;;4.15;2.70;;;14.10;99.90;;;;;;5029143;28;20022;-79
2023/09/30 00:13:08;;;;;;;5.75;2.80;;;14.10;99.90;;;;;;5014280;28;20034;-79
2023/09/30 00:15:34;;;;;;;6.68;2.55;;;14.00;99.90;;;;;;5022550;28;20454;-80
2023/09/30 00:18:01;;;;;;;5.65;2.63;;;14.00;99.90;;;;;;5034248;28;20360;-79
2023/09/30 00:20:27;;;;;;;3.90;2.40;;;13.90;99.90;;;;;;5027092;28;20041;-80
2023/09/30 00:22:53;;;;;;;3.60;2.22;;;13.90;99.90;;;;;;5027370;28;20022;-79
2023/09/30 00:25:20;;;;;;;4.20;2.58;;;13.90;99.90;;;;;;5034134;28;20429;-80
2023/09/30 00:27:46;;;;;;;4.43;2.22;;;13.90;99.90;;;;;;5022529;28;20451;-79
2023/09/30 00:30:12;;;;;;;4.35;2.53;;;13.90;99.90;;;;;;5032815;28;20458;-80
2023/09/30 00:32:39;;;;;;;5.55;2.22;;;13.90;99.90;;;;;;5011080;28;20030;-80
2023/09/30 00:35:11;;;;;;;4.00;2.40;;;13.90;99.90;;;;;;5039307;28;20029;-79
2023/09/30 00:37:41;;;;;;;3.60;2.20;;;13.90;99.90;;;;;;5022382;28;20075;-79
2023/09/30 00:40:14;;;;;;;5.05;2.28;;;14.00;99.90;;;;;;5015505;28;20084;-80
2023/09/30 00:42:40;;;;;;;4.22;2.53;;;14.00;99.90;;;;;;4995819;28;20022;-80
2023/09/30 00:45:08;;;;;;;4.45;2.35;;;14.10;99.90;;;;;;5037652;28;20037;-80
2023/09/30 00:47:34;;;;;;;4.50;2.30;;;14.10;99.90;;;;;;5022427;28;20371;-79
2023/09/30 00:50:00;;;;;;;3.35;1.85;;;14.10;99.90;;;;;;5016589;28;20053;-79
2023/09/30 00:52:27;;;;;;;5.25;2.30;;;14.20;99.90;;;;;;5027453;28;20018;-80
2023/09/30 00:54:54;;;;;;;6.13;2.55;;;14.20;99.90;;;;;;5027249;28;20077;-79
2023/09/30 00:57:21;;;;;;;3.90;2.40;;;14.20;99.90;;;;;;5034148;28;20486;-80
2023/09/30 00:59:48;;;;;;;4.00;2.50;;;14.20;99.90;;;;;;5021717;28;20393;-80
2023/09/30 01:02:14;;;;;;;3.90;2.40;;;14.30;99.90;;;;;;5038093;28;20036;-80
2023/09/30 01:04:40;;;;;;;5.72;2.53;;;14.30;99.90;;;;;;5038905;28;20022;-80
2023/09/30 01:07:06;;;;;;;4.03;2.40;;;14.30;99.90;;;;;;5019466;28;20033;-80
2023/09/30 01:09:32;;;;;;;4.57;2.15;;;14.30;99.90;;;;;;5037980;28;20028;-80
2023/09/30 01:11:58;;;;;;;5.22;2.40;;;14.30;99.90;;;;;;5035832;28;20363;-80
2023/09/30 01:14:25;;;;;;;7.50;2.83;;;14.30;99.90;;;;;;5038557;28;20505;-80
2023/09/30 01:16:50;;;;;;;3.55;2.35;;;14.30;99.90;;;;;;5038618;28;20028;-84
2023/09/30 01:19:16;;;;;;;5.30;2.75;;;14.20;99.90;;;;;;5020736;28;20026;-80
2023/09/30 01:21:48;;;;;;;5.70;3.20;;;14.20;99.90;;;;;;5025423;28;20030;-79
2023/09/30 01:24:17;;;;;;;6.72;3.45;;;14.20;99.90;;;;;;5014465;28;20021;-79
2023/09/30 01:26:43;;;;;;;5.47;3.30;;;14.10;99.90;;;;;;5027820;28;20080;-80
2023/09/30 01:29:12;;;;;;;4.57;3.03;;;14.10;99.90;;;;;;5040590;28;20026;-79
2023/09/30 01:31:39;;;;;;;5.43;2.72;;;14.10;99.90;;;;;;5041408;28;20053;-79
2023/09/30 01:34:04;;;;;;;4.85;2.70;;;14.10;99.90;;;;;;5041285;28;20045;-80
2023/09/30 01:36:30;;;;;;;3.85;2.40;;;14.10;99.90;;;;;;5022610;28;20048;-79
2023/09/30 01:38:56;;;;;;;3.72;2.40;;;14.10;99.90;;;;;;5040794;28;20088;-80
2023/09/30 01:41:23;;;;;;;3.65;2.15;;;14.10;99.90;;;;;;5039378;28;20111;-80
2023/09/30 01:43:49;;;;;;;4.10;2.35;;;14.10;99.90;;;;;;5041080;28;20041;-79
2023/09/30 01:46:14;;;;;;;5.25;2.80;;;14.10;99.90;;;;;;5040550;28;20037;-79
2023/09/30 01:48:40;;;;;;;4.63;2.83;;;14.10;99.90;;;;;;5040720;28;20021;-79
2023/09/30 01:51:06;;;;;;;6.38;2.67;;;14.10;99.90;;;;;;5038971;28;20037;-79
2023/09/30 01:53:32;;;;;;;4.05;2.45;;;14.10;99.90;;;;;;5039120;28;20549;-79
2023/09/30 01:55:58;;;;;;;4.88;2.72;;;14.10;99.90;;;;;;5032595;28;20053;-79
2023/09/30 01:58:25;;;;;;;5.28;2.80;;;14.10;99.90;;;;;;5013862;28;20037;-79
2023/09/30 02:00:54;;;;;;;7.75;2.75;;;14.20;99.90;;;;;;5026360;28;20033;-79
2023/09/30 02:03:19;;;;;;;4.68;2.95;;;14.10;99.90;;;;;;5033691;28;20029;-78
2023/09/30 02:05:45;;;;;;;4.75;2.88;;;14.10;99.90;;;;;;5035947;28;20486;-79
2023/09/30 02:08:11;;;;;;;5.30;3.08;;;14.10;99.90;;;;;;5024711;28;20021;-79
2023/09/30 02:10:36;;;;;;;4.60;2.72;;;14.10;99.90;;;;;;5029138;28;20037;-79
2023/09/30 02:13:05;;;;;;;4.93;2.53;;;14.10;99.90;;;;;;5030007;28;20025;-79
2023/09/30 02:15:32;;;;;;;3.78;2.60;;;14.10;99.90;;;;;;5034640;28;20113;-79
2023/09/30 02:17:57;;;;;;;4.50;2.70;;;14.00;99.90;;;;;;5022731;28;20177;-80
2023/09/30 02:20:25;;;;;;;5.25;2.72;;;14.10;99.90;;;;;;5031137;28;20098;-79
2023/09/30 02:22:52;;;;;;;4.32;2.60;;;14.00;99.90;;;;;;5018823;28;20025;-78
2023/09/30 02:25:18;;;;;;;5.28;2.78;;;14.00;99.90;;;;;;5033744;28;20060;-79
2023/09/30 02:27:45;;;;;;;5.60;3.28;;;14.00;99.90;;;;;;5035913;28;20037;-78
2023/09/30 02:30:15;;;;;;;4.43;2.38;;;14.00;99.90;;;;;;5024199;28;20026;-79
2023/09/30 02:32:42;;;;;;;5.93;2.78;;;14.00;99.90;;;;;;5037673;28;20018;-78
2023/09/30 02:35:10;;;;;;;4.85;2.88;;;14.00;99.90;;;;;;5038246;28;20041;-78
2023/09/30 02:37:37;;;;;;;4.38;2.58;;;14.00;99.90;;;;;;5036891;28;20493;-79
2023/09/30 02:40:09;;;;;;;5.07;2.55;;;14.10;99.90;;;;;;5023333;28;20034;-78
2023/09/30 02:42:38;;;;;;;4.13;2.60;;;14.10;99.90;;;;;;5029387;28;20022;-78
2023/09/30 02:45:08;;;;;;;4.68;2.92;;;14.10;99.90;;;;;;5031040;28;20100;-79
2023/09/30 02:47:38;;;;;;;5.05;3.38;;;14.10;99.90;;;;;;5021396;28;20022;-79
2023/09/30 02:50:16;;;;;;;5.28;3.28;;;14.10;99.90;;;;;;5019415;28;20075;-79
2023/09/30 02:52:42;;;;;;;4.03;2.53;;;14.00;99.90;;;;;;5027689;28;20026;-79
2023/09/30 02:55:09;;;;;;;4.45;2.83;;;14.10;99.90;;;;;;5014277;28;20028;-78
2023/09/30 02:57:37;;;;;;;5.30;3.10;;;14.00;99.90;;;;;;5004061;28;20029;-79
2023/09/30 03:00:23;;;;;;;5.05;3.03;;;14.00;99.90;;;;;;5032934;28;20022;-78
2023/09/30 03:02:50;;;;;;;4.60;2.75;;;14.00;99.90;;;;;;5028567;28;20229;-78
2023/09/30 03:05:17;;;;;;;4.03;2.80;;;14.00;99.90;;;;;;5037576;28;20025;-78
2023/09/30 03:07:43;;;;;;;5.25;2.42;;;14.00;99.90;;;;;;5003286;28;20483;-78
2023/09/30 03:10:09;;;;;;;6.35;2.83;;;14.00;99.90;;;;;;5031535;28;20057;-79
2023/09/30 03:12:35;;;;;;;4.25;2.50;;;14.00;99.90;;;;;;5026739;28;20017;-79
2023/09/30 03:15:04;;;;;;;4.28;2.70;;;14.00;99.90;;;;;;5023120;28;20088;-79
2023/09/30 03:17:31;;;;;;;3.88;2.58;;;14.00;99.90;;;;;;5023359;28;20030;-78
2023/09/30 03:19:58;;;;;;;5.10;3.25;;;14.00;99.90;;;;;;5037472;28;20492;-78
2023/09/30 03:22:26;;;;;;;9.38;4.88;;;14.00;99.90;;;;;;5027870;28;20030;-78
2023/09/30 03:24:54;;;;;;;8.55;4.65;;;14.10;99.90;;;;;;5018058;28;20045;-78
2023/09/30 03:27:20;;;;;;;8.48;3.97;;;14.00;99.90;;;;;;5017229;28;20030;-78
2023/09/30 03:29:46;;;;;;;5.95;3.35;;;14.00;99.90;;;;;;5015983;28;20022;-78
2023/09/30 03:32:12;;;;;;;4.60;2.92;;;14.00;99.90;;;;;;5022600;28;20029;-79
2023/09/30 03:34:37;;;;;;;4.45;2.92;;;14.10;99.90;;;;;;5036518;28;20080;-78
2023/09/30 03:37:06;;;;;;;6.40;3.40;;;14.10;99.90;;;;;;5037091;28;20529;-79
2023/09/30 03:39:32;;;;;;;5.50;2.90;;;14.10;99.90;;;;;;5036491;28;20033;-79
2023/09/30 03:41:59;;;;;;;4.82;2.83;;;14.10;99.90;;;;;;5036757;28;20021;-79
2023/09/30 03:44:25;;;;;;;4.55;2.70;;;14.10;99.90;;;;;;5036287;28;20474;-79
2023/09/30 03:46:52;;;;;;;5.32;3.30;;;14.10;99.90;;;;;;5036606;28;20030;-79
2023/09/30 03:49:19;;;;;;;5.35;3.10;;;14.10;99.90;;;;;;5035929;28;20021;-78
2023/09/30 03:51:45;;;;;;;5.57;2.72;;;14.20;99.90;;;;;;5036949;28;20033;-79
2023/09/30 03:54:11;;;;;;;5.40;3.17;;;14.10;99.90;;;;;;5037205;28;20029;-79
2023/09/30 03:56:38;;;;;;;5.53;2.80;;;14.20;99.90;;;;;;5037006;28;20044;-79
2023/09/30 03:59:04;;;;;;;5.00;2.63;;;14.20;99.90;;;;;;5036562;28;20025;-79
2023/09/30 04:01:30;;;;;;;5.00;2.95;;;14.20;99.90;;;;;;5036040;28;20394;-79
2023/09/30 04:03:56;;;;;;;5.63;2.95;;;14.20;99.90;;;;;;5016702;28;20397;-80
2023/09/30 04:06:22;;;;;;;5.47;3.13;;;14.10;99.90;;;;;;5016135;28;20105;-78
2023/09/30 04:08:48;;;;;;;6.22;3.15;;;14.10;99.90;;;;;;5016491;28;20375;-78
2023/09/30 04:11:17;;;;;;;4.93;2.95;;;14.10;99.90;;;;;;5026547;28;20053;-78
2023/09/30 04:13:44;;;;;;;4.68;2.80;;;14.10;99.90;;;;;;5036322;28;20025;-78
2023/09/30 04:16:10;;;;;;;4.22;2.50;;;14.10;99.90;;;;;;5035806;28;20033;-78
2023/09/30 04:18:36;;;;;;;4.32;2.53;;;14.10;99.90;;;;;;5036693;28;20370;-79
2023/09/30 04:21:02;;;;;;;5.07;2.80;;;14.10;99.90;;;;;;5018221;28;20056;-78
2023/09/30 04:23:28;;;;;;;5.57;3.03;;;14.10;99.90;;;;;;5035868;28;20038;-79
2023/09/30 04:25:54;;;;;;;4.65;3.10;;;14.20;99.90;;;;;;5036013;28;20151;-78
2023/09/30 04:28:20;;;;;;;12.32;8.00;;;14.20;99.90;;;;;;5036126;28;20022;-78
2023/09/30 04:30:50;;;;;;;11.70;6.97;;;14.20;99.90;;;;;;5017925;28;20466;-78
2023/09/30 04:33:17;;;;;;;8.18;5.53;;;14.20;99.90;;;;;;5022025;28;20070;-78
2023/09/30 04:35:44;;;;;;;7.00;4.70;;;14.20;99.90;;;;;;4998496;28;20034;-78
2023/09/30 04:38:10;;;;;;;9.30;5.38;;;14.20;99.90;;;;;;5016471;28;20029;-78
2023/09/30 04:40:37;;;;;;;6.50;4.10;;;14.20;99.90;;;;;;5021255;28;20026;-78
2023/09/30 04:43:03;;;;;;;5.93;3.47;;;14.20;99.90;;;;;;5030491;28;20076;-78
2023/09/30 04:45:28;;;;;;;5.47;3.75;;;14.10;99.90;;;;;;5022627;28;20030;-79
2023/09/30 04:47:57;;;;;;;5.65;3.20;;;14.10;99.90;;;;;;5015756;28;20060;-78
2023/09/30 04:50:23;;;;;;;4.95;3.17;;;14.10;99.90;;;;;;5015608;28;20026;-78
2023/09/30 04:52:53;;;;;;;3.85;2.45;;;14.10;99.90;;;;;;4998249;28;20034;-78
2023/09/30 04:55:19;;;;;;;3.95;2.83;;;14.00;99.90;;;;;;5034193;28;20025;-78
2023/09/30 04:57:48;;;;;;;4.43;2.70;;;14.00;99.90;;;;;;5035202;28;20084;-78
2023/09/30 05:00:16;;;;;;;4.47;2.83;;;14.10;99.90;;;;;;5036505;28;20053;-79
2023/09/30 05:02:45;;;;;;;4.40;2.90;;;14.10;99.90;;;;;;5035765;28;20040;-78
2023/09/30 05:05:11;;;;;;;5.22;3.20;;;14.10;99.90;;;;;;5021633;28;20026;-78
2023/09/30 05:07:37;;;;;;;5.97;2.97;;;14.10;99.90;;;;;;5020882;28;20434;-78
2023/09/30 05:10:07;;;;;;;5.15;2.67;;;14.10;99.90;;;;;;5019649;28;20018;-78
2023/09/30 05:12:33;;;;;;;4.35;2.85;;;14.10;99.90;;;;;;5034685;28;20037;-78
2023/09/30 05:14:59;;;;;;;4.53;2.60;;;14.10;99.90;;;;;;5026482;28;20518;-78
2023/09/30 05:17:24;;;;;;;5.13;3.00;;;14.20;99.90;;;;;;5020750;28;20042;-78
2023/09/30 05:19:50;;;;;;;5.00;3.20;;;14.20;99.90;;;;;;5021599;28;20041;-78
2023/09/30 05:22:18;;;;;;;5.07;3.35;;;14.10;99.90;;;;;;5034969;28;20486;-78
2023/09/30 05:24:44;;;;;;;6.07;3.50;;;14.20;99.90;;;;;;5038903;28;20477;-78
2023/09/30 05:27:10;;;;;;;5.95;3.50;;;14.20;99.90;;;;;;5034003;28;20113;-78
2023/09/30 05:29:35;;;;;;;5.40;3.53;;;14.20;99.90;;;;;;5004219;28;20053;-78
2023/09/30 05:32:01;;;;;;;4.60;3.17;;;14.10;99.90;;;;;;5025297;28;20021;-78
2023/09/30 05:34:27;;;;;;;5.65;3.17;;;14.10;99.90;;;;;;5027536;28;20030;-78
2023/09/30 05:36:53;;;;;;;7.13;3.65;;;14.20;99.90;;;;;;4991359;28;20075;-78
2023/09/30 05:39:19;;;;;;;4.13;2.65;;;14.20;99.90;;;;;;5008582;28;20486;-78
2023/09/30 05:41:46;;;;;;;4.03;2.50;;;14.20;99.90;;;;;;5016254;28;20677;-78
2023/09/30 05:44:14;;;;;;;5.20;2.75;;;14.20;99.90;;;;;;5035942;28;20029;-78
2023/09/30 05:46:40;;;;;;;5.13;2.45;;;14.20;99.90;;;;;;5030620;28;20029;-77
2023/09/30 05:49:11;;;;;;;4.80;2.63;;;14.20;99.90;;;;;;5036462;28;20025;-78
2023/09/30 05:51:36;;;;;;;5.20;3.40;;;14.20;99.90;;;;;;5036022;28;20029;-78
2023/09/30 05:54:03;;;;;;;4.65;2.78;;;14.20;99.90;;;;;;5036949;28;20029;-78
2023/09/30 05:56:29;;;;;;;3.75;2.47;;;14.20;99.90;;;;;;5035918;28;20052;-78
2023/09/30 05:58:55;;;;;;;4.38;2.70;;;14.20;99.90;;;;;;5036988;28;20057;-78
2023/09/30 06:01:22;;;;;;;4.28;2.67;;;14.20;99.90;;;;;;5035996;28;20514;-78
2023/09/30 06:03:47;;;;;;;4.35;2.97;;;14.20;99.90;;;;;;5035178;28;20143;-78
2023/09/30 06:06:15;;;;;;;4.57;2.95;;;14.20;99.90;;;;;;5035218;28;20029;-78
2023/09/30 06:08:47;;;;;;;4.32;2.78;;;14.20;99.90;;;;;;5037040;28;20972;-78
2023/09/30 06:11:19;;;;;;;5.05;3.03;;;14.20;99.90;;;;;;5037310;28;20413;-78
2023/09/30 06:13:48;;;;;;;7.95;3.53;;;14.20;99.90;;;;;;5038005;28;20025;-78
2023/09/30 06:16:16;;;;;;;5.95;3.70;;;14.20;99.90;;;;;;5037506;28;20160;-78
2023/09/30 06:18:41;;;;;;;5.85;4.00;;;14.20;99.90;;;;;;5032144;28;20034;-78
2023/09/30 06:21:10;;;;;;;5.13;3.33;;;14.20;99.90;;;;;;5033441;28;20038;-78
2023/09/30 06:23:35;;;;;;;6.70;4.00;;;14.20;99.90;;;;;;5014403;28;20083;-78
2023/09/30 06:26:03;;;;;;;6.13;4.72;;;14.20;99.90;;;;;;5035876;28;20494;-78
2023/09/30 06:28:31;;;;;;;8.32;6.00;;;14.30;99.90;;;;;;5014937;28;20033;-78
2023/09/30 06:30:57;;;;;;;8.73;5.75;;;14.30;99.90;;;;;;5036848;28;20453;-78
2023/09/30 06:33:23;;;;;;;7.90;4.80;;;14.30;99.90;;;;;;5019013;28;20061;-78
2023/09/30 06:35:52;;;;;;;7.53;4.40;;;14.40;99.90;;;;;;5034690;28;20029;-78
2023/09/30 06:38:19;;;;;;;6.90;3.90;;;14.40;99.90;;;;;;5030132;28;20041;-78
2023/09/30 06:40:47;;;;;;;5.60;3.50;;;14.30;99.90;;;;;;5030362;28;20030;-78
2023/09/30 06:43:16;;;;;;;5.50;3.33;;;14.40;99.90;;;;;;5035906;28;20029;-78
2023/09/30 06:45:43;;;;;;;8.00;3.88;;;14.40;99.90;;;;;;5032205;28;20025;-78
2023/09/30 06:48:15;;;;;;;7.35;3.83;;;14.50;99.90;;;;;;5018560;28;20375;-78
2023/09/30 06:50:45;;;;;;;6.00;3.47;;;14.50;99.90;;;;;;5036927;28;20076;-78
2023/09/30 06:53:11;;;;;;;9.13;4.28;;;14.50;99.90;;;;;;5031984;28;20021;-78
2023/09/30 06:55:40;;;;;;;5.88;3.67;;;14.50;99.90;;;;;;5034638;28;20544;-78
2023/09/30 06:58:10;;;;;;;6.65;4.10;;;14.60;99.90;;;;;;4999016;28;20029;-78
2023/09/30 07:00:41;;;;;;;7.30;4.45;;;14.60;99.90;;;;;;5033890;28;20041;-78
2023/09/30 07:03:09;;;;;;;8.40;4.90;;;14.60;99.90;;;;;;5036429;28;20017;-78
2023/09/30 07:05:39;;;;;;;9.27;4.85;;;14.50;99.90;;;;;;5031822;28;20029;-79
2023/09/30 07:08:05;;;;;;;6.90;4.38;;;14.60;99.90;;;;;;5031486;28;20026;-79
2023/09/30 07:10:31;;;;;;;10.05;4.78;;;14.50;99.90;;;;;;5028633;28;20386;-78
2023/09/30 07:12:57;;;;;;;9.70;4.95;;;14.60;99.90;;;;;;5031147;28;20037;-79
2023/09/30 07:15:22;;;;;;;7.97;4.18;;;14.60;99.90;;;;;;5037089;28;20088;-78
2023/09/30 07:17:48;;;;;;;7.35;4.07;;;14.70;99.90;;;;;;5036475;28;20060;-79
2023/09/30 07:20:14;;;;;;;7.43;4.35;;;14.70;99.90;;;;;;5036460;28;20034;-79
2023/09/30 07:22:41;;;;;;;7.10;4.47;;;14.70;99.90;;;;;;5035864;28;20087;-79
2023/09/30 07:25:08;;;;;;;9.88;4.78;;;14.80;99.90;;;;;;5037249;28;20124;-78
2023/09/30 07:27:34;;;;;;;8.95;5.22;;;14.80;99.90;;;;;;5036543;28;20029;-78
2023/09/30 07:30:00;;;;;;;10.30;5.65;;;14.80;99.90;;;;;;5036480;28;20036;-78
2023/09/30 07:32:25;;;;;;;11.15;6.28;;;14.90;99.90;;;;;;5033802;28;20089;-79
2023/09/30 07:34:51;;;;;;;8.60;5.15;;;14.90;99.90;;;;;;5029993;28;20033;-78
2023/09/30 07:37:18;;;;;;;9.65;5.32;;;15.00;99.90;;;;;;5036043;28;20034;-78
2023/09/30 07:39:45;;;;;;;10.23;5.32;;;15.00;99.90;;;;;;5036628;28;20040;-79
2023/09/30 07:42:11;;;;;;;10.75;6.70;;;15.00;99.90;;;;;;5036541;28;20056;-78
2023/09/30 07:44:37;;;;;;;12.98;5.43;;;15.00;99.90;;;;;;5036889;28;20486;-79
2023/09/30 07:47:06;;;;;;;11.55;6.13;;;15.00;99.90;;;;;;5036109;28;20085;-78
2023/09/30 07:49:34;;;;;;;11.98;6.00;;;15.10;99.90;;;;;;5018529;28;20059;-78
2023/09/30 07:52:00;;;;;;;10.43;5.97;;;15.10;99.90;;;;;;5040344;28;20108;-81
2023/09/30 07:54:26;;;;;;;14.00;7.47;;;15.10;99.90;;;;;;5039394;28;20063;-79
2023/09/30 07:56:52;;;;;;;11.95;6.15;;;15.20;99.90;;;;;;5039831;28;20029;-81
2023/09/30 07:59:17;;;;;;;14.65;7.25;;;15.20;99.90;;;;;;5040363;28;20033;-81
2023/09/30 08:01:43;;;;;;;15.93;7.30;;;15.20;99.90;;;;;;5041811;28;20596;-81
2023/09/30 08:04:09;;;;;;;18.55;7.65;;;15.30;99.90;;;;;;5050224;28;20089;-80
2023/09/30 08:06:34;;;;;;;18.27;8.45;;;15.30;99.90;;;;;;5029232;28;20494;-81
2023/09/30 08:09:02;;;;;;;21.08;8.60;;;15.40;99.90;;;;;;5028710;28;20060;-81
2023/09/30 08:11:30;;;;;;;14.40;7.45;;;15.40;99.90;;;;;;5040157;28;20017;-81
2023/09/30 08:13:59;;;;;;;16.63;8.00;;;15.40;99.90;;;;;;5040124;28;20565;-81
2023/09/30 08:16:24;;;;;;;20.17;8.85;;;15.40;99.90;;;;;;5022644;28;20124;-81
2023/09/30 08:18:50;;;;;;;17.95;8.32;;;15.40;99.90;;;;;;5037668;28;20041;-80
2023/09/30 08:21:16;;;;;;;17.40;7.63;;;15.50;99.90;;;;;;5022363;28;20030;-81
2023/09/30 08:23:42;;;;;;;14.98;8.02;;;15.50;99.90;;;;;;5039648;28;20026;-80
2023/09/30 08:26:08;;;;;;;13.90;6.82;;;15.50;99.90;;;;;;5039011;28;20026;-81
2023/09/30 08:28:35;;;;;;;19.65;8.25;;;15.60;99.90;;;;;;5039579;28;20025;-81
2023/09/30 08:31:05;;;;;;;19.35;9.07;;;15.60;99.90;;;;;;5021841;28;20021;-81
2023/09/30 08:33:31;;;;;;;19.88;9.32;;;15.60;99.90;;;;;;5039676;28;20028;-80
2023/09/30 08:36:06;;;;;;;21.42;8.57;;;15.70;99.90;;;;;;5039927;28;20053;-81
2023/09/30 08:38:33;;;;;;;17.25;7.95;;;15.70;99.90;;;;;;5031802;28;20029;-81
2023/09/30 08:40:59;;;;;;;18.80;8.32;;;15.80;99.90;;;;;;5034508;28;20022;-81
2023/09/30 08:43:30;;;;;;;16.90;8.13;;;15.80;99.90;;;;;;5037858;28;20022;-81
2023/09/30 08:45:57;;;;;;;19.92;8.50;;;15.80;99.90;;;;;;5037719;28;20095;-81
2023/09/30 08:48:33;;;;;;;15.68;7.88;;;15.90;99.90;;;;;;5021314;28;20022;-81
2023/09/30 08:51:00;;;;;;;17.45;7.78;;;15.90;99.90;;;;;;5021459;28;20083;-80
2023/09/30 08:53:28;;;;;;;17.35;8.40;;;15.90;99.90;;;;;;5001713;28;20034;-83
2023/09/30 08:55:55;;;;;;;14.20;7.28;;;16.00;99.90;;;;;;5039162;28;20079;-79
2023/09/30 08:58:26;;;;;;;18.85;7.50;;;16.00;99.90;;;;;;5034294;28;20466;-81
2023/09/30 09:00:52;;;;;;;16.73;7.45;;;16.10;99.90;;;;;;5027068;28;20029;-83
2023/09/30 09:03:21;;;;;;;17.90;7.55;;;16.20;99.90;;;;;;5038273;28;20021;-82
2023/09/30 09:05:56;;;;;;;15.65;7.93;;;16.30;99.90;;;;;;5008924;28;20397;-83
2023/09/30 09:08:25;;;;;;;17.48;7.70;;;16.30;99.90;;;;;;5015413;28;20083;-82
2023/09/30 09:10:59;;;;;;;15.63;8.20;;;16.40;99.90;;;;;;5009223;28;20524;-82
2023/09/30 09:13:25;;;;;;;20.70;8.93;;;16.50;99.90;;;;;;5037754;28;20068;-83
2023/09/30 09:16:07;;;;;;;18.98;8.40;;;16.70;99.90;;;;;;5020933;28;20436;-81
2023/09/30 09:18:33;;;;;;;19.85;8.43;;;16.80;99.90;;;;;;5015998;28;20033;-81
2023/09/30 09:21:10;;;;;;;19.70;8.75;;;16.90;99.90;;;;;;5039098;28;20052;-83
2023/09/30 09:23:44;;;;;;;21.13;8.90;;;17.00;99.90;;;;;;5022102;28;20049;-82
2023/09/30 09:26:11;;;;;;;19.70;8.85;;;17.10;99.90;;;;;;5037632;28;20499;-83
2023/09/30 09:28:42;;;;;;;25.42;8.95;;;17.20;99.90;;;;;;5039677;28;20378;-82
2023/09/30 09:31:28;;;;;;;19.70;8.80;;;17.40;99.90;;;;;;5038427;28;20013;-82
2023/09/30 09:33:54;;;;;;;22.52;10.13;;;17.50;99.90;;;;;;5020182;28;20029;-83
2023/09/30 09:36:20;;;;;;;22.02;9.30;;;17.60;99.90;;;;;;5033175;28;20418;-83
2023/09/30 09:38:54;;;;;;;23.08;9.45;;;17.70;99.90;;;;;;5037218;28;20046;-81
2023/09/30 09:41:21;;;;;;;22.80;9.32;;;17.80;99.90;;;;;;5021563;28;20112;-81
2023/09/30 09:43:50;;;;;;;23.70;9.32;;;17.90;99.90;;;;;;5002437;28;20085;-80
2023/09/30 09:46:17;;;;;;;23.80;10.27;;;18.00;99.90;;;;;;5021196;28;20029;-80
2023/09/30 09:48:47;;;;;;;23.98;10.05;;;18.10;99.90;;;;;;4996232;28;20457;-81
2023/09/30 09:51:16;;;;;;;21.38;9.00;;;18.10;99.90;;;;;;5038216;28;20025;-80
2023/09/30 09:53:43;;;;;;;23.38;10.25;;;18.10;99.90;;;;;;5037971;28;20105;-81
2023/09/30 09:56:10;;;;;;;21.02;9.23;;;18.20;99.90;;;;;;5022694;28;20492;-81
2023/09/30 09:58:38;;;;;;;19.75;8.75;;;18.30;99.90;;;;;;5004016;28;20425;-80
2023/09/30 10:01:06;;;;;;;23.58;9.48;;;18.40;99.90;;;;;;5035479;28;20021;-79
2023/09/30 10:03:32;;;;;;;24.40;10.30;;;18.40;99.90;;;;;;5019243;28;20024;-78
2023/09/30 10:05:59;;;;;;;22.70;9.50;;;18.40;99.90;;;;;;5005604;28;20041;-78
2023/09/30 10:08:39;;;;;;;22.17;9.70;;;18.40;99.90;;;;;;5030687;28;20026;-78
2023/09/30 10:11:05;;;;;;;23.23;9.93;;;18.40;99.90;;;;;;5020674;28;20016;-78
2023/09/30 10:13:49;;;;;;;23.08;10.40;;;18.40;99.90;;;;;;5036711;28;20442;-78
2023/09/30 10:16:37;;;;;;;25.08;9.45;;;18.40;99.90;;;;;;5024466;28;20383;-79
2023/09/30 10:19:14;;;;;;;24.65;11.00;;;18.40;99.90;;;;;;5014342;28;20052;-78
2023/09/30 10:22:00;;;;;;;23.67;9.48;;;18.40;99.90;;;;;;5036886;28;20036;-79
2023/09/30 10:24:27;;;;;;;22.83;10.45;;;18.50;99.90;;;;;;5019185;28;20025;-78
2023/09/30 10:27:34;;;;;;;23.98;9.95;;;18.50;99.90;;;;;;5017518;28;20116;-79
2023/09/30 10:30:09;;;;;;;24.02;10.23;;;18.60;99.90;;;;;;5001744;28;20030;-78
2023/09/30 10:32:50;;;;;;;26.38;10.55;;;18.80;99.90;;;;;;5010060;28;20020;-78
2023/09/30 10:35:39;;;;;;;24.75;10.55;;;19.00;99.90;;;;;;5027694;28;20029;-78
2023/09/30 10:38:27;;;;;;;26.75;10.80;;;19.10;99.90;;;;;;5002835;28;20486;-79
2023/09/30 10:40:53;;;;;;;25.33;10.05;;;19.30;99.90;;;;;;5034286;28;20024;-77
2023/09/30 10:43:39;;;;;;;27.33;10.82;;;19.40;99.90;;;;;;5014196;28;20483;-77
2023/09/30 10:46:27;;;;;;;24.95;10.25;;;19.40;99.90;;;;;;5017369;28;20093;-78
2023/09/30 10:48:53;;;;;;;23.85;9.98;;;19.30;99.90;;;;;;5010611;28;20021;-78
2023/09/30 10:51:23;;;;;;;24.13;10.77;;;19.30;99.90;;;;;;5021737;28;20092;-78
2023/09/30 10:53:57;;;;;;;26.60;10.90;;;19.30;99.90;;;;;;5025180;28;20026;-78
2023/09/30 10:56:24;;;;;;;26.92;11.52;;;19.30;99.90;;;;;;5018264;28;20485;-77
2023/09/30 10:58:53;;;;;;;23.00;10.48;;;19.40;99.90;;;;;;5038395;28;20481;-78
2023/09/30 11:01:23;;;;;;;27.15;10.45;;;19.40;99.90;;;;;;5014949;28;20116;-79
2023/09/30 11:03:51;;;;;;;26.88;10.38;;;19.50;99.90;;;;;;5021373;28;20464;-79
2023/09/30 11:06:20;;;;;;;24.08;9.75;;;19.50;99.90;;;;;;5037101;28;20098;-78
2023/09/30 11:08:58;;;;;;;27.48;10.70;;;19.60;99.90;;;;;;5035220;28;20018;-77
2023/09/30 11:11:35;;;;;;;22.50;10.40;;;19.80;99.90;;;;;;5034550;28;20116;-78
2023/09/30 11:14:02;;;;;;;22.85;10.00;;;19.80;99.90;;;;;;5035112;28;20021;-77
2023/09/30 11:16:28;;;;;;;25.05;10.77;;;19.80;99.90;;;;;;5017239;28;20030;-77
2023/09/30 11:18:54;;;;;;;23.52;10.32;;;19.90;99.90;;;;;;5036271;28;20033;-79
2023/09/30 11:21:20;;;;;;;28.85;10.88;;;20.00;99.90;;;;;;5039456;28;20482;-78
2023/09/30 11:23:46;;;;;;;23.95;9.75;;;20.10;99.90;;;;;;5007328;28;20038;-79
2023/09/30 11:26:13;;;;;;;26.05;10.25;;;20.20;99.90;;;;;;5020152;28;20053;-78
2023/09/30 11:28:41;;;;;;;26.90;11.20;;;20.20;99.90;;;;;;5002199;28;20038;-77
2023/09/30 11:31:18;;;;;;;21.65;9.70;;;20.30;99.90;;;;;;5035382;28;20068;-78
2023/09/30 11:33:56;;;;;;;27.10;9.90;;;20.20;99.90;;;;;;5028998;28;20102;-77
2023/09/30 11:36:23;;;;;;;22.48;9.60;;;20.20;99.90;;;;;;5008597;28;20034;-79
2023/09/30 11:38:50;;;;;;;26.83;10.18;;;20.00;99.90;;;;;;5049761;28;20029;-80
2023/09/30 11:41:18;;;;;;;23.38;10.40;;;19.90;99.90;;;;;;5046457;28;20084;-79
2023/09/30 11:44:01;;;;;;;25.38;9.85;;;19.80;99.90;;;;;;5042914;28;20099;-80
2023/09/30 11:46:27;;;;;;;24.67;9.98;;;19.90;99.90;;;;;;5042743;28;20098;-80
2023/09/30 11:49:02;;;;;;;23.80;9.63;;;19.90;99.90;;;;;;5044901;28;20022;-80
2023/09/30 11:51:45;;;;;;;20.30;9.35;;;20.00;99.90;;;;;;5045245;28;20021;-79
2023/09/30 11:54:11;;;;;;;22.98;9.77;;;20.10;99.90;;;;;;5044996;28;20021;-80
2023/09/30 11:56:37;;;;;;;21.25;9.40;;;20.00;99.90;;;;;;5036244;28;20036;-77
2023/09/30 11:59:04;;;;;;;21.65;9.02;;;20.00;99.90;;;;;;5004182;28;20029;-79
2023/09/30 12:01:32;;;;;;;25.58;9.95;;;20.20;99.90;;;;;;4999530;28;20053;-78
2023/09/30 12:03:58;;;;;;;21.75;9.48;;;20.20;99.90;;;;;;5030417;28;20026;-80
2023/09/30 12:06:24;;;;;;;20.60;9.48;;;20.20;99.90;;;;;;5000022;28;20117;-80
2023/09/30 12:08:51;;;;;;;23.77;10.02;;;20.00;99.90;;;;;;5038314;28;20482;-80
2023/09/30 12:11:18;;;;;;;23.25;9.18;;;20.00;99.90;;;;;;5040597;28;20382;-80
2023/09/30 12:13:44;;;;;;;25.65;10.02;;;20.00;99.90;;;;;;5039475;28;20013;-80
2023/09/30 12:16:13;;;;;;;22.65;9.65;;;19.90;99.90;;;;;;5031517;28;20034;-79
2023/09/30 12:18:40;;;;;;;22.52;9.45;;;19.90;99.90;;;;;;5039895;28;20021;-79
2023/09/30 12:21:10;;;;;;;23.95;9.70;;;19.80;99.90;;;;;;5034879;28;20030;-79
2023/09/30 12:23:36;;;;;;;22.08;9.95;;;19.80;99.90;;;;;;5010519;28;20599;-80
2023/09/30 12:26:05;;;;;;;21.50;8.88;;;19.80;99.90;;;;;;5038806;28;20121;-79
2023/09/30 12:28:32;;;;;;;24.27;9.85;;;19.80;99.90;;;;;;5035979;28;20029;-79
2023/09/30 12:30:59;;;;;;;25.70;10.25;;;19.80;99.90;;;;;;5038956;28;20029;-79
2023/09/30 12:33:24;;;;;;;23.63;10.02;;;19.80;99.90;;;;;;5023405;28;20013;-79
2023/09/30 12:35:51;;;;;;;23.42;10.25;;;19.90;99.90;;;;;;5021993;28;20067;-79
2023/09/30 12:38:17;;;;;;;24.67;10.30;;;20.00;99.90;;;;;;5041068;28;20030;-80
2023/09/30 12:40:43;;;;;;;22.80;10.30;;;20.20;99.90;;;;;;5039513;28;20112;-79
2023/09/30 12:43:10;;;;;;;25.25;10.05;;;20.30;99.90;;;;;;5029148;28;20030;-79
2023/09/30 12:45:38;;;;;;;22.50;9.55;;;20.30;99.90;;;;;;5022552;28;20029;-79